Aubrey, Texas
Current Conditions -  °F | °C
As of 12:53 AM on Thursday 23 Oct 2014 (Local Time) from KDTO Reporting Station
Broken Clouds Broken Clouds  
Wind Chill: 67°   Ceiling: 11000
Heat Index: 67°   Visibility: 10mi
Dew Point: 59°   Wind: 5mph
Humidity: 76%   Direction: 130°SE
Pressure: 30.1"   Gusts: NA
Location:  33.3°N, 96.99°W
Report Text: KDTO 230553Z AUTO 13004KT 10SM FEW075 BKN110 19/15 A3010 RMK AO2 RAB06E41 SLP186 P0001 60001 T01940150 10239 20189 402610122 56003
Loading
Personal Weather Stations






























Interactive Weather Map
Tropical Storm Tracking
New forecast layout! Learn more

10-Day Weather Forecast

Advertisements
Track Severe Weather on mobile